METAR stanice u blizini

 

LYBE - Beograd / Surčin, Srbija
Ažurirano: 24/09/2022 18:30
Vedro
Vedro
 Pravac vetra I
Vetar: I 6 km/h
Temperatura: 18°C
Tačka rose: 6°C
Vlažnost: 46%
Pritisak: 1017 hPa
Pregled: Vedro
Vidljivost: greater than 10 km
2022/09/24 16:30 LYBE 241630Z 09003KT CAVOK 18/06 Q1017 NOSIG
LYBT - Beograd / Batajnica, Srbija
Ažurirano: 24/09/2022 18:30
Vedro
Vedro
 Pravac vetra I
Vetar: I 7 km/h
Temperatura: 16°C
Tačka rose: 9°C
Vlažnost: 63%
Pritisak: 1017 hPa
Pregled: Vedro
Vidljivost: greater than 10 km
2022/09/24 16:30 LYBT 241630Z 09004KT CAVOK 16/09 Q1017 NOSIG
LYVR - Vršac, Srbija
Ažurirano: 24/09/2022 18:30
Vedro
Vedro
 Pravac vetra varies
Vetar: varies 2 km/h
Temperatura: 15°C
Tačka rose: 7°C
Vlažnost: 59%
Pritisak: 1018 hPa
Pregled: Vedro
Vidljivost: greater than 10 km
2022/09/24 16:30 LYVR 241630Z AUTO VRB01KT CAVOK 15/07 Q1018
 
LYKV - Lađevci, Srbija
Ažurirano: 24/09/2022 18:30
Vedro
Vedro
 Pravac vetra JI
Vetar: JI 7 km/h
Temperatura: 17°C
Tačka rose: 10°C
Vlažnost: 64%
Pritisak: 1017 hPa
Pregled: Vedro
Vidljivost: greater than 10 km
2022/09/24 16:30 LYKV 241630Z 14004KT CAVOK 17/10 Q1017 NOSIG
LYNI - Niš, Srbija
Ažurirano: 24/09/2022 18:30
Vedro
Vedro
 Pravac vetra I
Vetar: I 6 km/h
Temperatura: 19°C
Tačka rose: 5°C
Vlažnost: 40%
Pritisak: 1018 hPa
Pregled: Vedro
Vidljivost: greater than 10 km
2022/09/24 16:30 LYNI 241630Z 08003KT CAVOK 19/05 Q1018 NOSIG
BKPR - Priština, Srbija
Ažurirano: 24/09/2022 18:30
Vedro
Vedro
 Pravac vetra Z
Vetar: Z 15 km/h
Temperatura: 16°C
Tačka rose: 1°C
Vlažnost: 36%
Pritisak: 1019 hPa
Pregled: Vedro
Vidljivost: greater than 10 km
2022/09/24 16:30 BKPR 241630Z 26008KT CAVOK 16/01 Q1019 NOSIG
 
LHPP - Pecs / Pogany, Hungary
Ažurirano: 24/09/2022 18:15
Vedro
Vedro
 Pravac vetra J
Vetar: J 7 km/h
Temperatura: 17°C
Tačka rose: 9°C
Vlažnost: 59%
Pritisak: 1016 hPa
Pregled: Vedro
Vidljivost: greater than 10 km
2022/09/24 16:15 LHPP 241615Z AUTO 18004KT CAVOK 17/09 Q1016
LHUD - Szeged, Hungary
Ažurirano: 04/07/2019 01:45
NOT Current
Vedro
Vedro
 Pravac vetra S
Vetar: S 7 km/h
Temperatura: 18°C
Tačka rose: 13°C
Vlažnost: 73%
Pritisak: 1019 hPa
Pregled: Vedro
Vidljivost: greater than 10 km
2019/07/03 23:45 LHUD 032345Z 35004KT CAVOK 18/13 Q1019
LRTR - Timisoara, Romania
Ažurirano: 24/09/2022 18:30
Vedro
Vedro
 Pravac vetra IJI
Vetar: IJI 9 km/h
Temperatura: 15°C
Tačka rose: 6°C
Vlažnost: 55%
Pritisak: 1017 hPa
Pregled: Vedro
Vidljivost: greater than 10 km
2022/09/24 16:30 LRTR 241630Z 12005KT CAVOK 15/06 Q1017
 
LRCV - Craiova, Romania
Ažurirano: 24/09/2022 18:30
Vedro
Vedro
 Pravac vetra calm
Vetar: Tišina
Temperatura: 16°C
Tačka rose: 1°C
Vlažnost: 36%
Pritisak: 1018 hPa
Pregled: Vedro
Vidljivost: greater than 10 km
2022/09/24 16:30 LRCV 241630Z 00000KT CAVOK 16/01 Q1018
LBSF - Sofia, Bulgaria
Ažurirano: 24/09/2022 18:30
Vedro
Vedro
 Pravac vetra ZSZ
Vetar: ZSZ 6 km/h
Temperatura: 16°C
Tačka rose: 4°C
Vlažnost: 45%
Pritisak: 1019 hPa
Pregled: Vedro
Vidljivost: greater than 10 km
2022/09/24 16:30 LBSF 241630Z 29003KT CAVOK 16/04 Q1019 NOSIG
LWSK - Skoplje, Makedonija
Ažurirano: 24/09/2022 18:30
Vedro
Vedro
 Pravac vetra I
Vetar: I 7 km/h
Temperatura: 18°C
Tačka rose: 3°C
Vlažnost: 37%
Pritisak: 1019 hPa
Pregled: Vedro
Vidljivost: greater than 10 km
2022/09/24 16:30 LWSK 241630Z 09004KT CAVOK 18/03 Q1019 NOSIG
 
LYPG - Podgorica, Crna Gora
Ažurirano: 24/09/2022 18:30
Vedro
Vedro
 Pravac vetra JZ
Vetar: JZ 6 km/h
Temperatura: 19°C
Tačka rose: 7°C
Vlažnost: 46%
Pritisak: 1020 hPa
Pregled: Vedro
Vidljivost: greater than 10 km
2022/09/24 16:30 LYPG 241630Z 22003KT CAVOK 19/07 Q1020 NOSIG
LQSA - Sarajevo, Bosna i Hercegovina
Ažurirano: 24/09/2022 18:30
Vedro
Vedro
 Pravac vetra SSI
Vetar: SSI 9 km/h
Temperatura: 17°C
Tačka rose: 4°C
Vlažnost: 42%
Pritisak: 1017 hPa
Pregled: Vedro
Vidljivost: greater than 10 km
2022/09/24 16:30 LQSA 241630Z 02005KT 360V060 CAVOK 17/04 Q1017 NOSIG
LDOS - Osijek, Hrvatksa
Ažurirano: 24/09/2022 18:30
Vedro
Vedro
 Pravac vetra JJI
Vetar: JJI 13 km/h
Temperatura: 17°C
Tačka rose: 10°C
Vlažnost: 64%
Pritisak: 1016 hPa
Pregled: Vedro
Vidljivost: greater than 10 km
2022/09/24 16:30 LDOS 241630Z 16007KT CAVOK 17/10 Q1016